Time;durP1;ratioP1;P1;durP2;ratioP2;P2;SDS_P1;SDS_P2;PMS_P1;PMS_P2;Temp;Humidity;BMP_temperature;BMP_pressure;BME280_temperature;BME280_humidity;BME280_pressure;Samples;Min_cycle;Max_cycle;Signal;HPM_P1;HPM_P2
2021/10/21 00:00:25;;;;;;;9.55;6.45;;;14.50;99.90;;;;;;4965269;28;20106;-72
2021/10/21 00:02:52;;;;;;;8.57;6.72;;;14.50;99.90;;;;;;4944003;28;20051;-74
2021/10/21 00:05:19;;;;;;;8.65;6.65;;;14.50;99.90;;;;;;4930182;29;20049;-74
2021/10/21 00:07:45;;;;;;;10.50;6.93;;;14.50;99.90;;;;;;4937259;28;20066;-73
2021/10/21 00:10:13;;;;;;;8.70;6.80;;;14.50;99.90;;;;;;4970557;28;20051;-74
2021/10/21 00:12:40;;;;;;;9.52;6.13;;;14.50;99.90;;;;;;4946452;28;20066;-71
2021/10/21 00:15:08;;;;;;;11.07;6.65;;;14.50;99.90;;;;;;4946062;28;20497;-74
2021/10/21 00:17:36;;;;;;;9.98;6.20;;;14.50;99.90;;;;;;4963055;28;20074;-73
2021/10/21 00:20:06;;;;;;;14.82;7.50;;;14.50;99.90;;;;;;4953990;28;20055;-73
2021/10/21 00:22:33;;;;;;;9.25;6.72;;;14.50;99.90;;;;;;4948567;28;20117;-74
2021/10/21 00:24:59;;;;;;;10.40;6.38;;;14.50;99.90;;;;;;4966727;28;20051;-73
2021/10/21 00:27:26;;;;;;;9.57;6.57;;;14.50;99.90;;;;;;4965549;28;20536;-74
2021/10/21 00:29:53;;;;;;;11.60;6.95;;;14.50;99.90;;;;;;4965976;28;20081;-74
2021/10/21 00:32:20;;;;;;;9.05;5.82;;;14.50;99.90;;;;;;4966260;28;20043;-72
2021/10/21 00:34:46;;;;;;;11.90;6.32;;;14.50;99.90;;;;;;4966409;28;20051;-73
2021/10/21 00:37:13;;;;;;;7.25;6.15;;;14.50;99.90;;;;;;4965025;28;20055;-74
2021/10/21 00:39:40;;;;;;;9.02;5.25;;;14.50;99.90;;;;;;4966791;28;20765;-74
2021/10/21 00:42:06;;;;;;;9.43;5.85;;;14.40;99.90;;;;;;4967026;28;20058;-74
2021/10/21 00:44:33;;;;;;;10.05;5.70;;;14.40;99.90;;;;;;4950284;29;20063;-75
2021/10/21 00:47:00;;;;;;;8.52;5.63;;;14.50;99.90;;;;;;4960722;28;20043;-72
2021/10/21 00:49:27;;;;;;;6.78;5.20;;;14.50;99.90;;;;;;4942746;28;20055;-72
2021/10/21 00:51:54;;;;;;;7.75;5.50;;;14.50;99.90;;;;;;4957153;28;20145;-72
2021/10/21 00:54:21;;;;;;;10.68;5.13;;;14.50;99.90;;;;;;4958800;28;20114;-71
2021/10/21 00:56:50;;;;;;;7.80;4.97;;;14.50;99.90;;;;;;4955586;28;20047;-73
2021/10/21 00:59:18;;;;;;;6.75;5.13;;;14.60;99.90;;;;;;4950718;28;20055;-74
2021/10/21 01:01:44;;;;;;;6.75;5.10;;;14.60;99.90;;;;;;4950955;28;20076;-75
2021/10/21 01:04:11;;;;;;;7.85;5.80;;;14.70;99.90;;;;;;4965441;28;20110;-75
2021/10/21 01:06:41;;;;;;;9.38;6.15;;;14.70;99.90;;;;;;4951132;28;20094;-74
2021/10/21 01:09:10;;;;;;;5.93;5.13;;;14.70;99.90;;;;;;4956580;28;20051;-75
2021/10/21 01:11:39;;;;;;;8.07;5.95;;;14.70;99.90;;;;;;4949086;28;20043;-73
2021/10/21 01:14:06;;;;;;;9.40;5.30;;;14.70;99.90;;;;;;4948000;28;20118;-73
2021/10/21 01:16:33;;;;;;;6.88;4.70;;;14.80;99.90;;;;;;4976176;28;20472;-75
2021/10/21 01:19:00;;;;;;;6.50;4.20;;;14.80;99.90;;;;;;4957174;28;20047;-73
2021/10/21 01:21:26;;;;;;;6.25;5.15;;;14.80;99.90;;;;;;4944438;28;20051;-75
2021/10/21 01:23:53;;;;;;;10.13;5.63;;;14.80;99.90;;;;;;4969082;28;20054;-73
2021/10/21 01:26:20;;;;;;;8.85;5.20;;;14.90;99.90;;;;;;4963624;28;20134;-72
2021/10/21 01:28:46;;;;;;;10.60;5.15;;;14.90;99.90;;;;;;4979136;28;20073;-73
2021/10/21 01:31:13;;;;;;;6.85;4.50;;;14.90;99.90;;;;;;4966806;28;20124;-75
2021/10/21 01:33:40;;;;;;;6.55;4.95;;;14.90;99.90;;;;;;4967970;28;20109;-74
2021/10/21 01:36:12;;;;;;;7.50;4.38;;;14.90;99.90;;;;;;4952515;28;20053;-74
2021/10/21 01:38:40;;;;;;;6.45;4.90;;;15.00;99.90;;;;;;4932526;29;20466;-75
2021/10/21 01:41:06;;;;;;;6.45;5.15;;;14.90;99.90;;;;;;4948621;28;20051;-75
2021/10/21 01:43:40;;;;;;;7.10;5.68;;;14.90;99.90;;;;;;4968352;28;20499;-74
2021/10/21 01:46:09;;;;;;;8.38;5.88;;;14.80;99.90;;;;;;4984675;28;20050;-73
2021/10/21 01:48:36;;;;;;;5.95;4.47;;;14.70;99.90;;;;;;4960830;28;20051;-72
2021/10/21 01:51:04;;;;;;;7.20;4.88;;;14.50;99.90;;;;;;4971078;28;20101;-74
2021/10/21 01:53:30;;;;;;;8.45;5.93;;;14.40;99.90;;;;;;4950583;28;20043;-71
2021/10/21 01:55:57;;;;;;;10.80;6.80;;;14.30;99.90;;;;;;4949469;28;20071;-72
2021/10/21 01:58:24;;;;;;;8.90;5.88;;;14.30;99.90;;;;;;4941081;28;20101;-71
2021/10/21 02:00:51;;;;;;;12.57;6.80;;;14.20;99.90;;;;;;4947933;29;20051;-74
2021/10/21 02:03:18;;;;;;;10.80;6.32;;;14.20;99.90;;;;;;4948520;29;20078;-73
2021/10/21 02:05:45;;;;;;;15.55;7.75;;;14.10;99.90;;;;;;4931265;28;20470;-72
2021/10/21 02:08:11;;;;;;;10.95;6.40;;;14.00;99.90;;;;;;4957363;28;20470;-74
2021/10/21 02:10:38;;;;;;;10.18;6.32;;;14.00;99.90;;;;;;4956038;28;20506;-73
2021/10/21 02:13:05;;;;;;;7.70;5.95;;;14.00;99.90;;;;;;4953344;28;20371;-73
2021/10/21 02:15:32;;;;;;;10.88;6.82;;;13.90;99.90;;;;;;4967536;28;21127;-73
2021/10/21 02:17:58;;;;;;;7.72;5.88;;;13.90;99.90;;;;;;4963821;28;20129;-73
2021/10/21 02:20:25;;;;;;;7.47;5.93;;;13.90;99.90;;;;;;4954098;28;20055;-72
2021/10/21 02:22:52;;;;;;;6.60;5.18;;;13.80;99.90;;;;;;4946625;28;20047;-74
2021/10/21 02:25:20;;;;;;;8.85;5.55;;;13.80;99.90;;;;;;4948227;28;20102;-72
2021/10/21 02:27:47;;;;;;;7.10;4.60;;;13.80;99.90;;;;;;4952287;28;20047;-73
2021/10/21 02:30:17;;;;;;;7.03;5.32;;;13.70;99.90;;;;;;4957591;28;20093;-73
2021/10/21 02:32:44;;;;;;;8.68;4.93;;;13.70;99.90;;;;;;4946461;29;20066;-72
2021/10/21 02:35:12;;;;;;;9.13;4.50;;;13.60;99.90;;;;;;4946934;28;20592;-74
2021/10/21 02:37:39;;;;;;;6.78;4.60;;;13.60;99.90;;;;;;4948575;29;20055;-72
2021/10/21 02:40:09;;;;;;;7.25;4.25;;;13.60;99.90;;;;;;4947920;28;20119;-72
2021/10/21 02:42:36;;;;;;;6.90;4.07;;;13.60;99.90;;;;;;4947228;29;20055;-72
2021/10/21 02:45:05;;;;;;;4.03;3.60;;;13.60;99.90;;;;;;4947811;29;20118;-72
2021/10/21 02:47:31;;;;;;;4.18;3.28;;;13.60;99.90;;;;;;4939915;28;20644;-74
2021/10/21 02:49:58;;;;;;;2.08;1.63;;;13.60;99.90;;;;;;4959215;28;20058;-72
2021/10/21 02:52:25;;;;;;;2.90;1.42;;;13.70;99.90;;;;;;4967079;28;20054;-74
2021/10/21 02:54:52;;;;;;;2.33;1.63;;;14.00;99.90;;;;;;4965534;28;20441;-73
2021/10/21 02:57:18;;;;;;;2.22;1.90;;;14.00;99.90;;;;;;4954173;28;20105;-72
2021/10/21 02:59:45;;;;;;;1.65;1.42;;;14.20;99.90;;;;;;4953001;28;20055;-74
2021/10/21 03:02:12;;;;;;;1.75;1.35;;;14.20;99.90;;;;;;4948502;28;20106;-73
2021/10/21 03:04:39;;;;;;;3.75;2.03;;;14.20;99.90;;;;;;4955606;28;20047;-72
2021/10/21 03:07:05;;;;;;;3.03;2.00;;;14.30;99.90;;;;;;5001985;23;20108;-76
2021/10/21 03:09:32;;;;;;;2.45;1.73;;;14.20;99.90;;;;;;5010298;28;20037;-76
2021/10/21 03:11:59;;;;;;;2.85;1.80;;;14.10;99.90;;;;;;4990452;28;20049;-76
2021/10/21 03:14:26;;;;;;;1.98;1.77;;;14.10;99.90;;;;;;5001406;28;20286;-77
2021/10/21 03:16:52;;;;;;;2.88;2.20;;;14.10;99.90;;;;;;5002187;28;20076;-76
2021/10/21 03:19:19;;;;;;;5.18;2.30;;;14.20;99.90;;;;;;5000256;28;20213;-76
2021/10/21 03:21:46;;;;;;;2.80;2.38;;;14.20;99.90;;;;;;5004373;28;20100;-76
2021/10/21 03:24:12;;;;;;;2.97;2.50;;;14.20;99.90;;;;;;5021641;28;20393;-76
2021/10/21 03:26:39;;;;;;;3.05;2.70;;;14.10;99.90;;;;;;4999946;28;20256;-77
2021/10/21 03:29:06;;;;;;;4.00;3.20;;;14.10;99.90;;;;;;5013769;28;20120;-77
2021/10/21 03:31:33;;;;;;;4.18;3.78;;;14.00;99.90;;;;;;4987872;28;20045;-76
2021/10/21 03:34:00;;;;;;;4.07;3.80;;;13.90;99.90;;;;;;5006539;28;20050;-76
2021/10/21 03:36:26;;;;;;;4.30;3.92;;;13.90;99.90;;;;;;5003905;28;20100;-77
2021/10/21 03:38:53;;;;;;;7.05;3.20;;;13.80;99.90;;;;;;5020337;28;20038;-76
2021/10/21 03:41:20;;;;;;;3.83;2.90;;;13.70;99.90;;;;;;4978840;28;20535;-77
2021/10/21 03:43:47;;;;;;;3.97;2.50;;;13.50;99.90;;;;;;5003849;28;20158;-76
2021/10/21 03:46:14;;;;;;;2.67;2.20;;;13.50;99.90;;;;;;5005510;28;20049;-76
2021/10/21 03:48:41;;;;;;;2.80;2.58;;;13.40;99.90;;;;;;4997217;28;20504;-76
2021/10/21 03:51:08;;;;;;;3.58;2.60;;;13.30;99.90;;;;;;5001621;28;20402;-76
2021/10/21 03:53:35;;;;;;;2.63;2.53;;;13.20;99.90;;;;;;4991658;28;20053;-76
2021/10/21 03:56:02;;;;;;;5.18;2.92;;;13.10;99.90;;;;;;4990576;28;20083;-76
2021/10/21 03:58:29;;;;;;;11.60;3.03;;;13.00;99.90;;;;;;5010537;28;20061;-76
2021/10/21 04:00:56;;;;;;;3.95;2.65;;;13.00;99.90;;;;;;5025066;28;20397;-77
2021/10/21 04:03:23;;;;;;;4.10;2.70;;;12.90;99.90;;;;;;5024677;28;20103;-77
2021/10/21 04:05:50;;;;;;;6.95;3.55;;;12.80;99.90;;;;;;5024280;28;20041;-76
2021/10/21 04:08:17;;;;;;;3.95;2.70;;;12.70;99.90;;;;;;5023745;28;20463;-76
2021/10/21 04:10:44;;;;;;;2.72;2.53;;;12.70;99.90;;;;;;5022812;28;20061;-76
2021/10/21 04:13:11;;;;;;;3.38;2.50;;;12.60;99.90;;;;;;5023054;28;20504;-77
2021/10/21 04:15:39;;;;;;;3.97;2.75;;;12.60;99.90;;;;;;5022923;28;20053;-76
2021/10/21 04:18:06;;;;;;;4.00;3.10;;;12.60;99.90;;;;;;5002198;28;20113;-75
2021/10/21 04:20:33;;;;;;;11.43;4.50;;;12.60;99.90;;;;;;5023590;28;20124;-76
2021/10/21 04:23:00;;;;;;;6.82;3.58;;;12.50;99.90;;;;;;5004820;28;20058;-77
2021/10/21 04:25:27;;;;;;;5.28;3.38;;;12.50;99.90;;;;;;5029973;28;20528;-76
2021/10/21 04:27:54;;;;;;;4.07;3.67;;;12.50;99.90;;;;;;5024355;28;20526;-76
2021/10/21 04:30:21;;;;;;;4.63;2.70;;;12.40;99.90;;;;;;5023746;28;20037;-76
2021/10/21 04:32:48;;;;;;;3.92;3.53;;;12.40;99.90;;;;;;5040803;28;20084;-76
2021/10/21 04:35:14;;;;;;;7.97;3.97;;;12.40;99.90;;;;;;5024292;28;20049;-76
2021/10/21 04:37:41;;;;;;;4.57;3.35;;;12.30;99.90;;;;;;5041563;28;20045;-76
2021/10/21 04:40:08;;;;;;;3.75;3.13;;;12.30;99.90;;;;;;5025499;28;20049;-76
2021/10/21 04:42:36;;;;;;;3.28;3.00;;;12.30;99.90;;;;;;5039793;28;20066;-77
2021/10/21 04:45:03;;;;;;;3.38;2.90;;;12.30;99.90;;;;;;5023136;28;20061;-76
2021/10/21 04:47:30;;;;;;;4.90;3.70;;;12.40;99.90;;;;;;5015366;28;20054;-76
2021/10/21 04:49:56;;;;;;;3.67;2.80;;;12.50;99.90;;;;;;4997098;28;20443;-78
2021/10/21 04:52:23;;;;;;;4.28;3.00;;;12.40;99.90;;;;;;5004225;28;20467;-76
2021/10/21 04:54:50;;;;;;;3.30;3.10;;;12.50;99.90;;;;;;4988142;28;20496;-77
2021/10/21 04:57:17;;;;;;;7.18;2.95;;;12.50;99.90;;;;;;4998560;28;20374;-76
2021/10/21 04:59:43;;;;;;;5.25;3.13;;;12.50;99.90;;;;;;4984848;28;20076;-76
2021/10/21 05:02:10;;;;;;;2.80;2.65;;;12.50;99.90;;;;;;5018464;28;20108;-76
2021/10/21 05:04:37;;;;;;;8.88;3.03;;;12.40;99.90;;;;;;5008268;28;20061;-76
2021/10/21 05:07:04;;;;;;;5.57;3.33;;;12.30;99.90;;;;;;5020599;28;20050;-76
2021/10/21 05:09:31;;;;;;;2.92;2.33;;;12.20;99.90;;;;;;5005876;28;20092;-76
2021/10/21 05:11:58;;;;;;;3.17;2.30;;;12.00;99.90;;;;;;5023404;28;20385;-76
2021/10/21 05:14:24;;;;;;;3.15;2.30;;;11.90;99.90;;;;;;5002849;28;20104;-76
2021/10/21 05:16:51;;;;;;;4.10;2.00;;;11.80;99.90;;;;;;5012045;28;20041;-77
2021/10/21 05:19:18;;;;;;;5.20;1.90;;;11.70;99.90;;;;;;5031971;28;20080;-77
2021/10/21 05:21:45;;;;;;;4.65;1.70;;;11.50;99.90;;;;;;5006920;28;20116;-77
2021/10/21 05:24:12;;;;;;;3.38;1.67;;;11.50;99.90;;;;;;5008846;28;20062;-76
2021/10/21 05:26:39;;;;;;;2.10;1.60;;;11.50;99.90;;;;;;5009498;28;20055;-76
2021/10/21 05:31:44;;;;;;;4.85;1.80;;;11.60;99.90;;;;;;5007032;28;20045;-75
2021/10/21 05:34:13;;;;;;;4.43;1.73;;;11.60;99.90;;;;;;4993236;28;20420;-75
2021/10/21 05:36:44;;;;;;;2.17;1.85;;;11.60;99.90;;;;;;5006075;28;20057;-76
2021/10/21 05:39:15;;;;;;;3.22;1.65;;;11.60;99.90;;;;;;4976921;28;20160;-75
2021/10/21 05:41:45;;;;;;;4.93;2.17;;;11.60;99.90;;;;;;4992059;28;20535;-76
2021/10/21 05:44:15;;;;;;;2.97;1.88;;;11.50;99.90;;;;;;5008730;28;20046;-76
2021/10/21 05:46:47;;;;;;;4.07;1.70;;;11.40;99.90;;;;;;4992996;28;20042;-76
2021/10/21 05:49:19;;;;;;;1.75;1.20;;;11.40;99.90;;;;;;5017806;28;20047;-73
2021/10/21 05:51:49;;;;;;;;;;;11.30;99.90;;;;;;5007743;28;20539;-75
2021/10/21 05:54:27;;;;;;;3.10;0.82;;;11.30;99.90;;;;;;4976565;28;19930;-75
2021/10/21 05:56:56;;;;;;;4.10;0.60;;;11.30;99.90;;;;;;4998274;28;20134;-75
2021/10/21 05:59:24;;;;;;;3.25;1.55;;;11.30;99.90;;;;;;5005530;28;20058;-75
2021/10/21 06:01:55;;;;;;;1.95;1.00;;;11.30;99.90;;;;;;4982120;28;20042;-75
2021/10/21 06:04:28;;;;;;;3.42;1.15;;;11.30;99.90;;;;;;4989000;28;20039;-75
2021/10/21 06:07:05;;;;;;;3.97;1.80;;;11.30;99.90;;;;;;4995721;28;20045;-75
2021/10/21 06:09:34;;;;;;;1.13;1.08;;;11.40;99.90;;;;;;5008580;28;20045;-75
2021/10/21 06:12:05;;;;;;;8.90;2.30;;;11.40;99.90;;;;;;5006157;28;20550;-75
2021/10/21 06:14:37;;;;;;;6.03;1.85;;;11.40;99.90;;;;;;5004755;28;20070;-74
2021/10/21 06:17:07;;;;;;;1.85;1.67;;;11.40;99.90;;;;;;5010186;28;20092;-75
2021/10/21 06:19:36;;;;;;;1.70;1.45;;;11.40;99.90;;;;;;5025465;28;20042;-74
2021/10/21 06:22:12;;;;;;;1.98;1.23;;;11.40;99.90;;;;;;5006194;28;20042;-75
2021/10/21 06:24:51;;;;;;;2.53;2.03;;;11.40;99.90;;;;;;4980575;28;20045;-75
2021/10/21 06:27:21;;;;;;;8.50;1.98;;;11.40;99.90;;;;;;5019844;28;20468;-75
2021/10/21 06:29:52;;;;;;;2.63;1.08;;;11.40;99.90;;;;;;4993062;28;20046;-78
2021/10/21 06:32:21;;;;;;;4.22;2.50;;;11.40;99.90;;;;;;5000920;28;20030;-78
2021/10/21 06:34:49;;;;;;;6.40;1.70;;;11.40;99.90;;;;;;5025258;28;20293;-78
2021/10/21 06:37:19;;;;;;;3.25;1.45;;;11.40;99.90;;;;;;5023151;28;20169;-78
2021/10/21 06:39:56;;;;;;;2.88;1.20;;;11.40;99.90;;;;;;5011697;28;20037;-75
2021/10/21 06:42:32;;;;;;;1.15;1.05;;;11.40;99.90;;;;;;5006969;28;20049;-82
2021/10/21 06:45:05;;;;;;;3.67;1.10;;;11.40;99.90;;;;;;5010773;28;20041;-82
2021/10/21 06:48:02;;;;;;;5.13;1.58;;;11.40;99.90;;;;;;5024692;28;20050;-82
2021/10/21 06:50:55;;;;;;;4.97;1.00;;;11.40;99.90;;;;;;5004890;28;20054;-83
2021/10/21 06:53:35;;;;;;;3.33;1.63;;;11.30;99.90;;;;;;4995616;28;20038;-84
2021/10/21 06:56:04;;;;;;;3.90;1.65;;;11.30;99.90;;;;;;4976400;28;20038;-84
2021/10/21 06:58:35;;;;;;;3.97;1.30;;;11.30;99.90;;;;;;4991516;28;20131;-84
2021/10/21 07:01:04;;;;;;;4.13;1.65;;;11.30;99.90;;;;;;5007854;28;20049;-84
2021/10/21 07:03:42;;;;;;;3.92;1.52;;;11.30;99.90;;;;;;5013024;28;20050;-83
2021/10/21 07:06:12;;;;;;;2.25;1.25;;;11.30;99.90;;;;;;4966448;28;20096;-84
2021/10/21 07:08:47;;;;;;;4.60;1.63;;;11.30;99.90;;;;;;4994740;28;20056;-84
2021/10/21 07:11:28;;;;;;;1.30;1.20;;;11.40;99.90;;;;;;5017608;28;20214;-83
2021/10/21 07:14:36;;;;;;;4.28;4.07;;;11.30;99.90;;;;;;5002977;28;20050;-82
2021/10/21 07:17:09;;;;;;;1.38;1.25;;;11.30;99.90;;;;;;5002700;28;20048;-81
2021/10/21 07:19:40;;;;;;;0.88;0.88;;;11.30;99.90;;;;;;4998431;28;20512;-82
2021/10/21 07:22:07;;;;;;;1.33;1.20;;;11.20;99.90;;;;;;4999334;28;20603;-84
2021/10/21 07:24:36;;;;;;;4.18;1.20;;;11.20;99.90;;;;;;5034948;28;20038;-82
2021/10/21 07:27:08;;;;;;;1.40;1.30;;;11.20;99.90;;;;;;5000799;28;20045;-81
2021/10/21 07:29:39;;;;;;;1.20;1.10;;;11.20;99.90;;;;;;5030602;28;20061;-83
2021/10/21 07:32:09;;;;;;;2.25;1.30;;;11.10;99.90;;;;;;5021464;28;20042;-84
2021/10/21 07:34:43;;;;;;;1.30;1.00;;;11.10;99.90;;;;;;5037943;28;20330;-82
2021/10/21 07:37:16;;;;;;;0.88;0.85;;;11.20;99.90;;;;;;5015587;28;20041;-82
2021/10/21 07:39:48;;;;;;;1.42;0.70;;;11.20;99.90;;;;;;5035880;28;20045;-84
2021/10/21 07:42:16;;;;;;;1.00;1.00;;;11.10;99.90;;;;;;5017910;28;20037;-83
2021/10/21 07:44:51;;;;;;;1.10;0.90;;;11.00;99.90;;;;;;5016865;28;20060;-84
2021/10/21 07:47:23;;;;;;;;;;;10.80;99.90;;;;;;5021918;28;20038;-82
2021/10/21 07:49:55;;;;;;;1.27;0.85;;;10.70;99.90;;;;;;5013257;28;19949;-84
2021/10/21 07:52:24;;;;;;;1.38;0.85;;;10.50;99.90;;;;;;4997360;28;20114;-83
2021/10/21 07:54:57;;;;;;;1.83;0.70;;;10.40;99.90;;;;;;5018668;28;20100;-83
2021/10/21 07:57:27;;;;;;;2.05;0.80;;;10.20;99.90;;;;;;5005049;28;20033;-84
2021/10/21 08:00:15;;;;;;;2.97;2.03;;;10.10;99.90;;;;;;4999516;28;20045;-85
2021/10/21 08:03:05;;;;;;;5.90;3.10;;;10.10;99.90;;;;;;4991359;28;20040;-86
2021/10/21 08:05:40;;;;;;;5.03;3.40;;;10.10;99.90;;;;;;5004954;28;20495;-83
2021/10/21 08:08:10;;;;;;;5.28;4.63;;;10.10;99.90;;;;;;5021888;28;20041;-85
2021/10/21 08:10:52;;;;;;;6.47;4.95;;;10.10;99.90;;;;;;5004183;28;20061;-84
2021/10/21 08:13:38;;;;;;;6.00;5.05;;;10.10;99.90;;;;;;5026260;28;20046;-83
2021/10/21 08:16:09;;;;;;;9.10;6.25;;;10.20;99.90;;;;;;5030825;28;20064;-85
2021/10/21 08:18:46;;;;;;;1.17;0.80;;;10.10;99.90;;;;;;5037269;28;20642;-83
2021/10/21 08:21:38;;;;;;;0.50;0.40;;;9.70;99.90;;;;;;4992492;28;20057;-84
2021/10/21 08:24:12;;;;;;;0.68;0.40;;;9.50;99.90;;;;;;5012395;28;20409;-84
2021/10/21 08:26:44;;;;;;;0.50;0.47;;;9.40;99.90;;;;;;5025497;28;20041;-83
2021/10/21 08:29:18;;;;;;;1.13;0.38;;;9.30;99.90;;;;;;5023806;28;20045;-87
2021/10/21 08:32:19;;;;;;;0.80;0.30;;;9.20;99.90;;;;;;5032362;28;20045;-85
2021/10/21 08:34:50;;;;;;;0.63;0.30;;;9.00;99.90;;;;;;5012883;28;20479;-85
2021/10/21 08:37:58;;;;;;;0.10;0.10;;;8.90;99.90;;;;;;5015217;28;20056;-84
2021/10/21 08:40:33;;;;;;;2.78;0.47;;;8.80;99.90;;;;;;5036033;28;20232;-83
2021/10/21 08:43:06;;;;;;;0.35;0.35;;;8.70;99.90;;;;;;5020935;28;20056;-85
2021/10/21 08:46:04;;;;;;;3.15;0.93;;;8.70;99.90;;;;;;5012853;28;20056;-85
2021/10/21 08:48:52;;;;;;;3.55;0.70;;;8.60;99.90;;;;;;5002493;28;20107;-86
2021/10/21 08:51:24;;;;;;;;;;;8.70;99.90;;;;;;4999517;28;20039;-85
2021/10/21 08:53:57;;;;;;;3.33;1.27;;;8.70;99.90;;;;;;5005549;28;19921;-86
2021/10/21 08:56:29;;;;;;;2.28;0.82;;;8.70;99.90;;;;;;4995458;28;20051;-85
2021/10/21 08:59:07;;;;;;;2.65;1.73;;;8.70;99.90;;;;;;5000399;28;20050;-85
2021/10/21 09:01:47;;;;;;;3.88;1.95;;;8.70;99.90;;;;;;5003193;28;20060;-87
2021/10/21 09:04:40;;;;;;;2.63;1.42;;;8.70;99.90;;;;;;5028922;28;20056;-84
2021/10/21 09:09:45;;;;;;;6.60;1.77;;;8.80;99.90;;;;;;5022395;28;20532;-68
2021/10/21 09:12:17;;;;;;;3.15;1.30;;;8.80;99.90;;;;;;5004534;28;20069;-73
2021/10/21 09:14:50;;;;;;;2.05;1.20;;;8.80;99.90;;;;;;5019995;28;20042;-71
2021/10/21 09:17:20;;;;;;;9.25;1.90;;;8.80;99.90;;;;;;5018899;28;20049;-66
2021/10/21 09:19:47;;;;;;;8.65;2.10;;;8.80;99.90;;;;;;5007597;28;20082;-68
2021/10/21 09:22:28;;;;;;;12.10;2.72;;;8.80;99.90;;;;;;4990312;28;20100;-69
2021/10/21 09:25:06;;;;;;;8.63;2.40;;;8.80;99.90;;;;;;4983904;28;20077;-72
2021/10/21 09:27:36;;;;;;;10.00;3.83;;;8.80;99.90;;;;;;5003596;28;20420;-73
2021/10/21 09:30:06;;;;;;;7.80;4.30;;;8.90;99.90;;;;;;5003439;28;20222;-70
2021/10/21 09:32:39;;;;;;;8.55;4.97;;;9.00;99.90;;;;;;5003943;28;20077;-72
2021/10/21 09:35:07;;;;;;;8.77;5.35;;;9.20;99.90;;;;;;5002038;28;20705;-70
2021/10/21 09:37:41;;;;;;;10.10;5.20;;;9.30;99.90;;;;;;5006653;28;20052;-72
2021/10/21 09:40:12;;;;;;;9.10;5.95;;;9.30;99.90;;;;;;5000695;28;20046;-72
2021/10/21 09:42:54;;;;;;;11.68;7.32;;;9.30;99.90;;;;;;5002943;28;20497;-74
2021/10/21 09:45:35;;;;;;;11.77;6.88;;;9.40;99.90;;;;;;5017591;28;20072;-71
2021/10/21 09:48:05;;;;;;;13.77;6.55;;;9.40;99.90;;;;;;4993162;28;20069;-72
2021/10/21 09:50:40;;;;;;;12.27;5.55;;;9.50;99.90;;;;;;5021576;28;20056;-69
2021/10/21 09:53:09;;;;;;;14.50;6.57;;;9.50;99.90;;;;;;5018149;28;20046;-69
2021/10/21 09:55:38;;;;;;;11.50;5.28;;;9.50;99.90;;;;;;5015467;28;20541;-69
2021/10/21 09:58:07;;;;;;;11.15;5.78;;;9.40;99.90;;;;;;5009009;28;20049;-71
2021/10/21 10:00:36;;;;;;;8.95;4.60;;;9.50;99.90;;;;;;5014878;28;20053;-71
2021/10/21 10:03:14;;;;;;;11.05;4.63;;;9.50;99.90;;;;;;5025569;28;20057;-71
2021/10/21 10:05:54;;;;;;;10.90;4.95;;;9.40;99.90;;;;;;4990585;28;20419;-72
2021/10/21 10:08:27;;;;;;;15.77;6.03;;;9.40;99.90;;;;;;5023923;28;20116;-71
2021/10/21 10:10:57;;;;;;;15.65;5.55;;;9.40;99.90;;;;;;4992330;28;20061;-71
2021/10/21 10:13:25;;;;;;;16.55;6.72;;;9.50;99.90;;;;;;4984867;28;20395;-71
2021/10/21 10:15:54;;;;;;;10.13;5.15;;;9.60;99.90;;;;;;5006919;28;20041;-70
2021/10/21 10:18:24;;;;;;;11.35;5.15;;;9.70;99.90;;;;;;5009349;28;20052;-74
2021/10/21 10:21:00;;;;;;;18.70;5.75;;;9.70;99.90;;;;;;5021393;28;20049;-71
2021/10/21 10:23:28;;;;;;;8.80;4.53;;;9.90;99.90;;;;;;5019923;28;20061;-69
2021/10/21 10:25:56;;;;;;;15.85;5.20;;;10.10;99.90;;;;;;5004599;28;20046;-71
2021/10/21 10:28:23;;;;;;;9.32;4.75;;;10.10;99.90;;;;;;4985997;28;20054;-75
2021/10/21 10:30:57;;;;;;;11.98;5.95;;;10.20;99.90;;;;;;5011049;28;20054;-71
2021/10/21 10:33:39;;;;;;;12.88;5.82;;;10.20;99.90;;;;;;5018726;28;20041;-73
2021/10/21 10:36:21;;;;;;;10.82;5.82;;;10.10;99.90;;;;;;5019284;28;20042;-71
2021/10/21 10:38:49;;;;;;;12.23;5.43;;;10.30;99.90;;;;;;4995894;28;20105;-70
2021/10/21 10:41:41;;;;;;;11.50;4.72;;;10.30;99.90;;;;;;5022787;28;20054;-69
2021/10/21 10:44:12;;;;;;;9.75;4.40;;;10.30;99.90;;;;;;5004546;28;20502;-72
2021/10/21 10:46:51;;;;;;;8.27;4.22;;;10.20;99.90;;;;;;5023113;28;20041;-72
2021/10/21 10:49:45;;;;;;;9.40;4.25;;;10.20;99.90;;;;;;4986428;28;20061;-72
2021/10/21 10:52:14;;;;;;;8.40;3.55;;;10.30;99.90;;;;;;5014020;28;20417;-72
2021/10/21 10:54:47;;;;;;;14.02;3.88;;;10.30;99.90;;;;;;4995264;28;20224;-71
2021/10/21 10:57:34;;;;;;;12.27;3.72;;;10.40;99.90;;;;;;5000553;28;20053;-71
2021/10/21 11:00:21;;;;;;;9.73;3.60;;;10.40;99.90;;;;;;5021719;28;20056;-70
2021/10/21 11:02:58;;;;;;;9.68;3.72;;;10.40;99.90;;;;;;4984911;28;20062;-71
2021/10/21 11:05:43;;;;;;;5.85;2.60;;;10.60;99.90;;;;;;4957005;28;20050;-70
2021/10/21 11:08:11;;;;;;;13.73;5.13;;;10.70;99.90;;;;;;5005221;28;20494;-71
2021/10/21 11:10:41;;;;;;;10.93;4.32;;;10.70;99.90;;;;;;5020883;28;20194;-71
2021/10/21 11:13:26;;;;;;;10.30;4.95;;;10.70;99.90;;;;;;5003887;28;22026;-69
2021/10/21 11:15:56;;;;;;;8.20;3.92;;;10.70;99.90;;;;;;5011865;28;20121;-70
2021/10/21 11:18:50;;;;;;;13.55;3.22;;;10.60;99.90;;;;;;5010874;28;20047;-70
2021/10/21 11:21:54;;;;;;;8.05;3.83;;;10.50;99.90;;;;;;5024679;28;20132;-71
2021/10/21 11:24:53;;;;;;;7.38;3.67;;;10.70;99.90;;;;;;5005436;28;20041;-71
2021/10/21 11:27:38;;;;;;;8.70;4.43;;;10.80;99.90;;;;;;4994099;28;20061;-71
2021/10/21 11:30:20;;;;;;;10.55;4.63;;;10.70;99.90;;;;;;5006091;28;20108;-72
2021/10/21 11:33:04;;;;;;;9.93;4.90;;;10.60;99.90;;;;;;5005758;28;20487;-70
2021/10/21 11:35:34;;;;;;;5.57;3.90;;;10.50;99.90;;;;;;5003055;28;20434;-71
2021/10/21 11:38:04;;;;;;;14.82;4.45;;;10.50;99.90;;;;;;5018101;28;20045;-73
2021/10/21 11:40:39;;;;;;;7.88;4.10;;;10.40;99.90;;;;;;5008973;28;20084;-70
2021/10/21 11:43:36;;;;;;;7.90;3.67;;;10.20;99.90;;;;;;5004842;28;20060;-70
2021/10/21 11:46:05;;;;;;;7.35;3.92;;;10.20;99.90;;;;;;5005576;28;20049;-71
2021/10/21 11:48:38;;;;;;;7.30;4.20;;;10.10;99.90;;;;;;5005746;28;20041;-69
2021/10/21 11:51:09;;;;;;;8.10;4.00;;;10.10;99.90;;;;;;5005154;28;20060;-70
2021/10/21 11:53:38;;;;;;;7.57;2.88;;;10.20;99.90;;;;;;5012204;28;20201;-70
2021/10/21 11:56:05;;;;;;;6.32;2.83;;;10.20;99.90;;;;;;5020148;28;20420;-71
2021/10/21 11:58:36;;;;;;;6.75;3.10;;;10.10;99.90;;;;;;5003665;28;20061;-70
2021/10/21 12:01:08;;;;;;;12.88;2.75;;;10.10;99.90;;;;;;5005166;28;20502;-70
2021/10/21 12:03:36;;;;;;;3.58;2.90;;;10.00;99.90;;;;;;5003304;28;20049;-69
2021/10/21 12:06:04;;;;;;;3.80;2.95;;;10.00;99.90;;;;;;5006656;28;20049;-70
2021/10/21 12:08:32;;;;;;;5.40;2.90;;;9.90;99.90;;;;;;5022891;28;20119;-70
2021/10/21 12:11:01;;;;;;;7.93;2.50;;;9.80;99.90;;;;;;5021425;28;20049;-70
2021/10/21 12:13:34;;;;;;;6.15;2.83;;;9.70;99.90;;;;;;5019083;28;20516;-69
2021/10/21 12:16:09;;;;;;;8.52;3.30;;;9.50;99.90;;;;;;5023134;28;20184;-69
2021/10/21 12:18:55;;;;;;;4.07;2.85;;;9.40;99.90;;;;;;5012610;28;20517;-70
2021/10/21 12:21:35;;;;;;;5.35;2.60;;;9.40;99.90;;;;;;5000959;28;20064;-69
2021/10/21 12:24:01;;;;;;;4.80;2.42;;;9.40;99.90;;;;;;5026201;28;20065;-69
2021/10/21 12:26:29;;;;;;;6.18;2.85;;;9.40;99.90;;;;;;5017023;28;20104;-69
2021/10/21 12:29:09;;;;;;;5.70;2.10;;;9.40;99.90;;;;;;5017556;28;20053;-70
2021/10/21 12:31:39;;;;;;;8.13;1.98;;;9.50;99.90;;;;;;5001996;28;20054;-69
2021/10/21 12:34:14;;;;;;;5.93;2.70;;;9.50;99.90;;;;;;5002521;28;20112;-70
2021/10/21 12:36:50;;;;;;;7.45;2.70;;;9.70;99.90;;;;;;4986690;28;20054;-69
2021/10/21 12:39:24;;;;;;;4.47;1.98;;;9.70;99.90;;;;;;5007026;28;20112;-70
2021/10/21 12:41:58;;;;;;;5.47;1.90;;;9.70;99.90;;;;;;5004387;28;20054;-71
2021/10/21 12:44:30;;;;;;;7.82;2.13;;;9.80;99.90;;;;;;4987598;28;20530;-69
2021/10/21 12:47:09;;;;;;;5.13;2.20;;;9.90;99.90;;;;;;5014541;28;20053;-69
2021/10/21 12:49:37;;;;;;;10.35;2.42;;;9.90;99.90;;;;;;5024394;28;20054;-71
2021/10/21 12:52:10;;;;;;;5.88;3.00;;;9.90;99.90;;;;;;5025497;28;20046;-70
2021/10/21 12:54:39;;;;;;;6.93;2.70;;;9.90;99.90;;;;;;5013270;28;20111;-70
2021/10/21 12:57:07;;;;;;;8.00;2.38;;;10.00;99.90;;;;;;5013090;28;20046;-70
2021/10/21 12:59:36;;;;;;;4.72;2.67;;;10.00;99.90;;;;;;5026316;28;20050;-69
2021/10/21 13:02:12;;;;;;;6.65;2.70;;;10.10;99.90;;;;;;5025899;28;20506;-71
2021/10/21 13:04:42;;;;;;;3.70;2.20;;;10.10;99.90;;;;;;5026261;28;20398;-71
2021/10/21 13:07:11;;;;;;;7.05;3.25;;;10.20;99.90;;;;;;4993833;28;20137;-71
2021/10/21 13:09:38;;;;;;;5.43;2.47;;;10.30;99.90;;;;;;4996228;28;20065;-71
2021/10/21 13:12:05;;;;;;;5.32;3.25;;;10.40;99.90;;;;;;5007074;28;20049;-71
2021/10/21 13:14:35;;;;;;;5.80;2.90;;;10.50;99.90;;;;;;5021394;28;20053;-70